Etusivu
METAR-TAF:

METAR-TAF

Lentoasemat :

Cleveland, Mississippi, Yhdysvallat

Leveyspiiri: 33-45-40N, Pituuspiiri: 090-45-28W, korkeus merenpinnasta: 42 m

Tämänhetkinen sää

Tämä raportti tehtiin 11 minuuttia sitten, kello 10.35 UTC
Tuuli 18 kn pohjoisesta puuskistuen 26 kn:hen
Lämpötila -2°C
Kosteus 74%
Ilmanpaine 1031 hPa
Näkyvyys: 16.1 km
Pilvistä 2300 ft:n korkeudessa

METAR: KRNV 121035Z AUTO 36018G26KT 10SM OVC023 M02/M06 A3045 RMK AO2 T10181059

Aika: 04:46 (10:46 UTC)


TAF: puuttuu

Säähavainnot ja -ennusteet yli 4000 lentoasemalta (METAR- ja TAF-raportit).

Käytössä olevat sääasemat on merkitty karttaan keltaisilla ja punaisilla pisteillä.

Aseta hiiri pisteen päälle nähdäksesi sääaseman nimen.

Klikkaa sitten nähdäksesi säähavainnot ja -ennusteet.

Kartan vaihtaminen: klikkaa mustalla rastilla varustettuja vihreitä pisteitä, niin voit zoomata sisään; viivalla varustettua vihreää pistettä, niin voit zoomata ulos tai vihreitä nuolia, niin pääset viereisille kartoille.


METAR-TAF: